sensor_id;sensor_type;location;lat;lon;timestamp;pressure;altitude;pressure_sealevel;temperature;humidity
35151;BME280;55720;51.972;4.624;2023-02-28T00:00:12;102894.28;;;-1.48;100.00
35151;BME280;55720;51.972;4.624;2023-02-28T00:02:40;102911.47;;;-1.56;100.00
35151;BME280;55720;51.972;4.624;2023-02-28T00:05:07;102909.13;;;-1.66;100.00
35151;BME280;55720;51.972;4.624;2023-02-28T00:07:33;102909.94;;;-1.72;100.00
35151;BME280;55720;51.972;4.624;2023-02-28T00:09:59;102906.22;;;-1.71;100.00
35151;BME280;55720;51.972;4.624;2023-02-28T00:12:25;102907.66;;;-1.68;100.00
35151;BME280;55720;51.972;4.624;2023-02-28T00:14:51;102919.47;;;-1.69;100.00
35151;BME280;55720;51.972;4.624;2023-02-28T00:17:17;102902.13;;;-1.60;100.00
35151;BME280;55720;51.972;4.624;2023-02-28T00:19:49;102944.25;;;-1.33;100.00
35151;BME280;55720;51.972;4.624;2023-02-28T00:22:16;102974.19;;;-1.15;100.00
35151;BME280;55720;51.972;4.624;2023-02-28T00:24:41;103016.13;;;-0.92;100.00
35151;BME280;55720;51.972;4.624;2023-02-28T00:27:07;102999.59;;;-0.76;100.00
35151;BME280;55720;51.972;4.624;2023-02-28T00:29:32;103044.22;;;-0.61;100.00
35151;BME280;55720;51.972;4.624;2023-02-28T00:31:57;103092.84;;;-0.47;100.00
35151;BME280;55720;51.972;4.624;2023-02-28T00:34:23;103111.09;;;-0.43;100.00
35151;BME280;55720;51.972;4.624;2023-02-28T00:36:48;103149.94;;;-0.37;100.00
35151;BME280;55720;51.972;4.624;2023-02-28T00:39:14;103187.56;;;-0.29;100.00
35151;BME280;55720;51.972;4.624;2023-02-28T00:41:39;103203.97;;;-0.18;100.00
35151;BME280;55720;51.972;4.624;2023-02-28T00:44:05;103212.97;;;-0.04;100.00
35151;BME280;55720;51.972;4.624;2023-02-28T00:46:30;103220.66;;;0.06;100.00
35151;BME280;55720;51.972;4.624;2023-02-28T00:48:55;103235.63;;;0.08;100.00
35151;BME280;55720;51.972;4.624;2023-02-28T00:51:21;103242.50;;;0.11;100.00
35151;BME280;55720;51.972;4.624;2023-02-28T00:53:46;103252.06;;;0.13;100.00
35151;BME280;55720;51.972;4.624;2023-02-28T00:56:12;103252.25;;;0.18;100.00
35151;BME280;55720;51.972;4.624;2023-02-28T00:58:37;103260.00;;;0.21;100.00
35151;BME280;55720;51.972;4.624;2023-02-28T01:01:03;103261.66;;;0.29;100.00
35151;BME280;55720;51.972;4.624;2023-02-28T01:03:28;103269.78;;;0.35;100.00
35151;BME280;55720;51.972;4.624;2023-02-28T01:05:54;103279.75;;;0.41;100.00
35151;BME280;55720;51.972;4.624;2023-02-28T01:08:19;103287.03;;;0.47;100.00
35151;BME280;55720;51.972;4.624;2023-02-28T01:10:45;103291.63;;;0.54;100.00
35151;BME280;55720;51.972;4.624;2023-02-28T01:13:14;103285.16;;;0.55;100.00
35151;BME280;55720;51.972;4.624;2023-02-28T01:15:46;103286.44;;;0.59;100.00
35151;BME280;55720;51.972;4.624;2023-02-28T01:18:13;103262.94;;;0.66;100.00
35151;BME280;55720;51.972;4.624;2023-02-28T01:20:39;103242.97;;;0.73;100.00
35151;BME280;55720;51.972;4.624;2023-02-28T01:23:05;103234.84;;;0.80;100.00
35151;BME280;55720;51.972;4.624;2023-02-28T01:25:30;103216.53;;;0.88;100.00
35151;BME280;55720;51.972;4.624;2023-02-28T01:27:55;103185.75;;;0.96;100.00
35151;BME280;55720;51.972;4.624;2023-02-28T01:30:21;103165.34;;;1.00;100.00
35151;BME280;55720;51.972;4.624;2023-02-28T01:32:46;103134.56;;;1.01;100.00
35151;BME280;55720;51.972;4.624;2023-02-28T01:35:12;103106.00;;;1.05;100.00
35151;BME280;55720;51.972;4.624;2023-02-28T01:37:37;103076.66;;;1.09;100.00
35151;BME280;55720;51.972;4.624;2023-02-28T01:40:03;103057.72;;;1.15;100.00
35151;BME280;55720;51.972;4.624;2023-02-28T01:42:28;103026.69;;;1.18;100.00
35151;BME280;55720;51.972;4.624;2023-02-28T01:47:28;102968.44;;;1.15;100.00
35151;BME280;55720;51.972;4.624;2023-02-28T01:49:55;102959.22;;;1.23;100.00
35151;BME280;55720;51.972;4.624;2023-02-28T01:52:21;102934.44;;;1.26;100.00
35151;BME280;55720;51.972;4.624;2023-02-28T01:54:52;102913.56;;;1.33;100.00
35151;BME280;55720;51.972;4.624;2023-02-28T01:57:22;102883.34;;;1.36;100.00
35151;BME280;55720;51.972;4.624;2023-02-28T02:00:00;102861.06;;;1.34;100.00
35151;BME280;55720;51.972;4.624;2023-02-28T02:02:30;102840.94;;;1.30;100.00
35151;BME280;55720;51.972;4.624;2023-02-28T02:05:04;102819.28;;;1.30;100.00
35151;BME280;55720;51.972;4.624;2023-02-28T02:07:34;102790.09;;;1.32;100.00
35151;BME280;55720;51.972;4.624;2023-02-28T02:15:09;102751.56;;;1.36;100.00
35151;BME280;55720;51.972;4.624;2023-02-28T02:17:43;102725.31;;;1.37;100.00
35151;BME280;55720;51.972;4.624;2023-02-28T02:29:03;102615.66;;;1.64;100.00
35151;BME280;55720;51.972;4.624;2023-02-28T02:31:57;102586.59;;;1.71;100.00
35151;BME280;55720;51.972;4.624;2023-02-28T02:37:12;102556.47;;;1.79;100.00
35151;BME280;55720;51.972;4.624;2023-02-28T02:40:00;102534.81;;;1.79;100.00
35151;BME280;55720;51.972;4.624;2023-02-28T02:45:31;102500.09;;;1.88;100.00
35151;BME280;55720;51.972;4.624;2023-02-28T02:48:02;102489.72;;;1.85;100.00
35151;BME280;55720;51.972;4.624;2023-02-28T02:50:32;102493.03;;;1.87;100.00
35151;BME280;55720;51.972;4.624;2023-02-28T02:53:01;102488.19;;;1.89;100.00
35151;BME280;55720;51.972;4.624;2023-02-28T02:55:28;102483.38;;;1.91;100.00
35151;BME280;55720;51.972;4.624;2023-02-28T02:58:01;102489.38;;;1.93;100.00
35151;BME280;55720;51.972;4.624;2023-02-28T03:00:39;102479.72;;;1.97;100.00
35151;BME280;55720;51.972;4.624;2023-02-28T03:03:08;102479.25;;;2.00;100.00
35151;BME280;55720;51.972;4.624;2023-02-28T03:05:48;102474.19;;;2.04;100.00
35151;BME280;55720;51.972;4.624;2023-02-28T03:08:14;102477.50;;;2.06;100.00
35151;BME280;55720;51.972;4.624;2023-02-28T03:10:43;102488.34;;;2.06;100.00
35151;BME280;55720;51.972;4.624;2023-02-28T03:13:30;102487.38;;;2.00;100.00
35151;BME280;55720;51.972;4.624;2023-02-28T03:18:55;102491.25;;;1.92;100.00
35151;BME280;55720;51.972;4.624;2023-02-28T03:21:25;102496.09;;;1.90;100.00
35151;BME280;55720;51.972;4.624;2023-02-28T03:24:08;102493.38;;;1.90;100.00
35151;BME280;55720;51.972;4.624;2023-02-28T03:26:41;102502.91;;;1.93;100.00
35151;BME280;55720;51.972;4.624;2023-02-28T03:29:15;102499.88;;;2.01;100.00
35151;BME280;55720;51.972;4.624;2023-02-28T03:34:29;102507.03;;;1.95;100.00
35151;BME280;55720;51.972;4.624;2023-02-28T03:37:19;102507.28;;;1.94;100.00
35151;BME280;55720;51.972;4.624;2023-02-28T03:39:56;102505.03;;;1.91;100.00
35151;BME280;55720;51.972;4.624;2023-02-28T03:42:27;102511.72;;;1.88;100.00
35151;BME280;55720;51.972;4.624;2023-02-28T03:44:58;102503.59;;;1.88;100.00
35151;BME280;55720;51.972;4.624;2023-02-28T03:47:28;102496.78;;;1.86;100.00
35151;BME280;55720;51.972;4.624;2023-02-28T03:50:02;102503.50;;;1.83;100.00
35151;BME280;55720;51.972;4.624;2023-02-28T03:52:34;102512.19;;;1.85;100.00
35151;BME280;55720;51.972;4.624;2023-02-28T03:55:03;102509.84;;;1.89;100.00
35151;BME280;55720;51.972;4.624;2023-02-28T03:57:34;102502.19;;;1.86;100.00
35151;BME280;55720;51.972;4.624;2023-02-28T04:02:32;102496.06;;;1.79;100.00
35151;BME280;55720;51.972;4.624;2023-02-28T04:05:00;102497.03;;;1.84;100.00
35151;BME280;55720;51.972;4.624;2023-02-28T04:07:29;102482.28;;;1.92;100.00
35151;BME280;55720;51.972;4.624;2023-02-28T04:09:54;102482.28;;;1.92;100.00
35151;BME280;55720;51.972;4.624;2023-02-28T04:12:20;102468.75;;;1.92;100.00
35151;BME280;55720;51.972;4.624;2023-02-28T04:14:48;102451.44;;;1.93;100.00
35151;BME280;55720;51.972;4.624;2023-02-28T04:17:13;102448.53;;;1.94;100.00
35151;BME280;55720;51.972;4.624;2023-02-28T04:19:39;102456.16;;;1.97;100.00
35151;BME280;55720;51.972;4.624;2023-02-28T04:22:04;102450.28;;;2.01;100.00
35151;BME280;55720;51.972;4.624;2023-02-28T04:24:30;102455.47;;;2.02;100.00
35151;BME280;55720;51.972;4.624;2023-02-28T04:26:57;102450.06;;;2.02;100.00
35151;BME280;55720;51.972;4.624;2023-02-28T04:29:31;102451.31;;;2.11;100.00
35151;BME280;55720;51.972;4.624;2023-02-28T04:32:00;102454.16;;;2.16;100.00
35151;BME280;55720;51.972;4.624;2023-02-28T04:34:27;102459.59;;;2.16;100.00
35151;BME280;55720;51.972;4.624;2023-02-28T04:36:54;102457.09;;;2.15;100.00
35151;BME280;55720;51.972;4.624;2023-02-28T04:39:21;102458.50;;;2.17;100.00
35151;BME280;55720;51.972;4.624;2023-02-28T04:41:47;102465.81;;;2.17;100.00
35151;BME280;55720;51.972;4.624;2023-02-28T04:44:13;102469.81;;;2.14;100.00
35151;BME280;55720;51.972;4.624;2023-02-28T04:46:39;102467.94;;;2.15;100.00
35151;BME280;55720;51.972;4.624;2023-02-28T04:49:04;102489.97;;;2.18;100.00
35151;BME280;55720;51.972;4.624;2023-02-28T04:51:30;102499.63;;;2.14;100.00
35151;BME280;55720;51.972;4.624;2023-02-28T04:53:56;102500.94;;;2.12;100.00
35151;BME280;55720;51.972;4.624;2023-02-28T04:56:22;102506.34;;;2.12;100.00
35151;BME280;55720;51.972;4.624;2023-02-28T04:58:47;102512.72;;;2.06;100.00
35151;BME280;55720;51.972;4.624;2023-02-28T05:01:23;102525.53;;;2.10;100.00
35151;BME280;55720;51.972;4.624;2023-02-28T05:03:49;102545.47;;;2.16;100.00
35151;BME280;55720;51.972;4.624;2023-02-28T05:06:15;102558.31;;;2.20;100.00
35151;BME280;55720;51.972;4.624;2023-02-28T05:08:41;102566.19;;;2.22;100.00
35151;BME280;55720;51.972;4.624;2023-02-28T05:11:15;102595.44;;;2.31;100.00
35151;BME280;55720;51.972;4.624;2023-02-28T05:13:41;102615.56;;;2.35;100.00
35151;BME280;55720;51.972;4.624;2023-02-28T05:16:06;102632.19;;;2.39;100.00
35151;BME280;55720;51.972;4.624;2023-02-28T05:18:32;102660.03;;;2.34;100.00
35151;BME280;55720;51.972;4.624;2023-02-28T05:20:57;102703.59;;;2.33;100.00
35151;BME280;55720;51.972;4.624;2023-02-28T05:23:23;102737.19;;;2.32;100.00
35151;BME280;55720;51.972;4.624;2023-02-28T05:25:48;102779.75;;;2.31;100.00
35151;BME280;55720;51.972;4.624;2023-02-28T05:28:14;102835.59;;;2.32;100.00
35151;BME280;55720;51.972;4.624;2023-02-28T05:30:40;102923.25;;;2.26;100.00
35151;BME280;55720;51.972;4.624;2023-02-28T05:33:17;102974.75;;;2.26;100.00
35151;BME280;55720;51.972;4.624;2023-02-28T05:35:43;102987.56;;;2.37;100.00
35151;BME280;55720;51.972;4.624;2023-02-28T05:38:08;103013.66;;;2.32;100.00
35151;BME280;55720;51.972;4.624;2023-02-28T05:40:34;103022.25;;;2.29;100.00
35151;BME280;55720;51.972;4.624;2023-02-28T05:43:00;103030.84;;;2.26;100.00
35151;BME280;55720;51.972;4.624;2023-02-28T05:45:26;103025.88;;;2.23;100.00
35151;BME280;55720;51.972;4.624;2023-02-28T05:47:55;103042.34;;;2.21;100.00
35151;BME280;55720;51.972;4.624;2023-02-28T05:50:20;103049.63;;;2.21;100.00
35151;BME280;55720;51.972;4.624;2023-02-28T05:52:52;103057.34;;;2.24;100.00
35151;BME280;55720;51.972;4.624;2023-02-28T05:55:17;103065.69;;;2.22;100.00
35151;BME280;55720;51.972;4.624;2023-02-28T05:57:43;103062.00;;;2.17;100.00
35151;BME280;55720;51.972;4.624;2023-02-28T06:00:09;103060.78;;;2.13;100.00
35151;BME280;55720;51.972;4.624;2023-02-28T06:02:35;103058.72;;;2.08;100.00
35151;BME280;55720;51.972;4.624;2023-02-28T06:05:00;103046.91;;;2.03;100.00
35151;BME280;55720;51.972;4.624;2023-02-28T06:07:26;103044.22;;;1.96;100.00
35151;BME280;55720;51.972;4.624;2023-02-28T06:09:51;103040.22;;;1.80;100.00
35151;BME280;55720;51.972;4.624;2023-02-28T06:12:17;103045.13;;;1.65;100.00
35151;BME280;55720;51.972;4.624;2023-02-28T06:14:42;103059.13;;;1.56;100.00
35151;BME280;55720;51.972;4.624;2023-02-28T06:17:08;103062.69;;;1.49;100.00
35151;BME280;55720;51.972;4.624;2023-02-28T06:19:34;103070.44;;;1.46;100.00
35151;BME280;55720;51.972;4.624;2023-02-28T06:21:59;103082.97;;;1.40;100.00
35151;BME280;55720;51.972;4.624;2023-02-28T06:24:26;103099.22;;;1.40;100.00
35151;BME280;55720;51.972;4.624;2023-02-28T06:26:53;103117.75;;;1.37;100.00
35151;BME280;55720;51.972;4.624;2023-02-28T06:29:18;103129.19;;;1.39;100.00
35151;BME280;55720;51.972;4.624;2023-02-28T06:31:45;103143.16;;;1.36;100.00
35151;BME280;55720;51.972;4.624;2023-02-28T06:34:11;103153.34;;;1.34;100.00
35151;BME280;55720;51.972;4.624;2023-02-28T06:36:40;103169.38;;;1.35;100.00
35151;BME280;55720;51.972;4.624;2023-02-28T06:39:07;103167.16;;;1.26;100.00
35151;BME280;55720;51.972;4.624;2023-02-28T06:41:32;103177.56;;;1.22;100.00
35151;BME280;55720;51.972;4.624;2023-02-28T06:44:12;103178.22;;;1.11;100.00
35151;BME280;55720;51.972;4.624;2023-02-28T06:46:39;103163.25;;;1.02;100.00
35151;BME280;55720;51.972;4.624;2023-02-28T06:49:05;103155.38;;;0.94;100.00
35151;BME280;55720;51.972;4.624;2023-02-28T06:51:34;103158.09;;;0.87;100.00
35151;BME280;55720;51.972;4.624;2023-02-28T06:54:00;103151.66;;;0.82;100.00
35151;BME280;55720;51.972;4.624;2023-02-28T06:56:26;103151.44;;;0.83;100.00
35151;BME280;55720;51.972;4.624;2023-02-28T06:58:51;103143.53;;;0.82;100.00
35151;BME280;55720;51.972;4.624;2023-02-28T07:01:18;103136.28;;;0.76;100.00
35151;BME280;55720;51.972;4.624;2023-02-28T07:03:45;103117.78;;;0.66;100.00
35151;BME280;55720;51.972;4.624;2023-02-28T07:06:10;103116.94;;;0.66;100.00
35151;BME280;55720;51.972;4.624;2023-02-28T07:08:36;103094.47;;;0.65;100.00
35151;BME280;55720;51.972;4.624;2023-02-28T07:11:02;103086.59;;;0.64;100.00
35151;BME280;55720;51.972;4.624;2023-02-28T07:13:28;103061.25;;;0.52;100.00
35151;BME280;55720;51.972;4.624;2023-02-28T07:16:08;103031.09;;;0.48;100.00
35151;BME280;55720;51.972;4.624;2023-02-28T07:18:35;103005.94;;;0.47;100.00
35151;BME280;55720;51.972;4.624;2023-02-28T07:21:07;102976.69;;;0.38;100.00
35151;BME280;55720;51.972;4.624;2023-02-28T07:23:33;102939.75;;;0.25;100.00
35151;BME280;55720;51.972;4.624;2023-02-28T07:25:59;102905.22;;;0.27;100.00
35151;BME280;55720;51.972;4.624;2023-02-28T07:28:24;102853.88;;;0.27;100.00
35151;BME280;55720;51.972;4.624;2023-02-28T07:30:50;102821.28;;;0.29;100.00
35151;BME280;55720;51.972;4.624;2023-02-28T07:33:15;102786.94;;;0.29;100.00
35151;BME280;55720;51.972;4.624;2023-02-28T07:35:41;102741.84;;;0.30;100.00
35151;BME280;55720;51.972;4.624;2023-02-28T07:38:07;102704.22;;;0.35;100.00
35151;BME280;55720;51.972;4.624;2023-02-28T07:40:34;102682.66;;;0.28;100.00
35151;BME280;55720;51.972;4.624;2023-02-28T07:43:00;102644.22;;;0.26;100.00
35151;BME280;55720;51.972;4.624;2023-02-28T07:45:26;102621.56;;;0.27;100.00
35151;BME280;55720;51.972;4.624;2023-02-28T07:47:54;102587.84;;;0.30;100.00
35151;BME280;55720;51.972;4.624;2023-02-28T07:50:19;102566.03;;;0.31;100.00
35151;BME280;55720;51.972;4.624;2023-02-28T07:52:45;102534.66;;;0.30;100.00
35151;BME280;55720;51.972;4.624;2023-02-28T07:55:10;102526.72;;;0.35;100.00
35151;BME280;55720;51.972;4.624;2023-02-28T07:57:36;102503.00;;;0.37;100.00
35151;BME280;55720;51.972;4.624;2023-02-28T08:00:04;102476.81;;;0.38;100.00
35151;BME280;55720;51.972;4.624;2023-02-28T08:02:29;102454.16;;;0.39;100.00
35151;BME280;55720;51.972;4.624;2023-02-28T08:04:55;102469.00;;;0.48;100.00
35151;BME280;55720;51.972;4.624;2023-02-28T08:07:21;102455.78;;;0.58;100.00
35151;BME280;55720;51.972;4.624;2023-02-28T08:09:46;102451.09;;;0.65;100.00
35151;BME280;55720;51.972;4.624;2023-02-28T08:12:12;102440.69;;;0.69;100.00
35151;BME280;55720;51.972;4.624;2023-02-28T08:14:37;102437.66;;;0.77;100.00
35151;BME280;55720;51.972;4.624;2023-02-28T08:17:03;102431.19;;;0.78;100.00
35151;BME280;55720;51.972;4.624;2023-02-28T08:19:29;102418.50;;;0.78;100.00
35151;BME280;55720;51.972;4.624;2023-02-28T08:21:56;102419.72;;;0.82;100.00
35151;BME280;55720;51.972;4.624;2023-02-28T08:24:21;102413.28;;;0.95;100.00
35151;BME280;55720;51.972;4.624;2023-02-28T08:26:47;102415.19;;;1.06;100.00
35151;BME280;55720;51.972;4.624;2023-02-28T08:29:12;102412.03;;;1.09;100.00
35151;BME280;55720;51.972;4.624;2023-02-28T08:31:38;102417.91;;;1.06;100.00
35151;BME280;55720;51.972;4.624;2023-02-28T08:34:10;102421.78;;;1.10;100.00
35151;BME280;55720;51.972;4.624;2023-02-28T08:36:36;102406.53;;;1.16;100.00
35151;BME280;55720;51.972;4.624;2023-02-28T08:39:02;102430.88;;;1.16;100.00
35151;BME280;55720;51.972;4.624;2023-02-28T08:41:28;102435.69;;;1.14;100.00
35151;BME280;55720;51.972;4.624;2023-02-28T08:43:54;102437.69;;;1.18;100.00
35151;BME280;55720;51.972;4.624;2023-02-28T08:46:20;102431.56;;;1.11;100.00
35151;BME280;55720;51.972;4.624;2023-02-28T08:48:46;102428.41;;;1.14;100.00
35151;BME280;55720;51.972;4.624;2023-02-28T08:51:18;102441.44;;;1.17;100.00
35151;BME280;55720;51.972;4.624;2023-02-28T08:53:47;102451.44;;;1.17;100.00
35151;BME280;55720;51.972;4.624;2023-02-28T08:56:15;102448.06;;;1.21;100.00
35151;BME280;55720;51.972;4.624;2023-02-28T08:58:42;102459.38;;;1.30;100.00
35151;BME280;55720;51.972;4.624;2023-02-28T09:01:18;102449.66;;;1.40;100.00
35151;BME280;55720;51.972;4.624;2023-02-28T09:03:47;102458.00;;;1.51;100.00
35151;BME280;55720;51.972;4.624;2023-02-28T09:06:14;102465.44;;;1.67;100.00
35151;BME280;55720;51.972;4.624;2023-02-28T09:08:40;102460.88;;;1.79;100.00
35151;BME280;55720;51.972;4.624;2023-02-28T09:11:06;102463.72;;;1.84;100.00
35151;BME280;55720;51.972;4.624;2023-02-28T09:13:32;102448.03;;;1.86;100.00
35151;BME280;55720;51.972;4.624;2023-02-28T09:15:59;102453.09;;;1.94;100.00
35151;BME280;55720;51.972;4.624;2023-02-28T09:18:26;102449.22;;;2.02;100.00
35151;BME280;55720;51.972;4.624;2023-02-28T09:20:51;102450.06;;;2.02;100.00
35151;BME280;55720;51.972;4.624;2023-02-28T09:23:17;102442.63;;;2.09;100.00
35151;BME280;55720;51.972;4.624;2023-02-28T09:25:51;102440.47;;;2.23;100.00
35151;BME280;55720;51.972;4.624;2023-02-28T09:28:17;102449.88;;;2.32;100.00
35151;BME280;55720;51.972;4.624;2023-02-28T09:30:49;102463.78;;;2.35;100.00
35151;BME280;55720;51.972;4.624;2023-02-28T09:33:16;102447.63;;;2.40;100.00
35151;BME280;55720;51.972;4.624;2023-02-28T09:35:42;102454.59;;;2.36;100.00
35151;BME280;55720;51.972;4.624;2023-02-28T09:38:08;102443.09;;;2.69;100.00
35151;BME280;55720;51.972;4.624;2023-02-28T09:43:13;102455.38;;;3.00;100.00
35151;BME280;55720;51.972;4.624;2023-02-28T09:45:50;102451.00;;;2.99;100.00
35151;BME280;55720;51.972;4.624;2023-02-28T09:48:26;102465.97;;;3.02;100.00
35151;BME280;55720;51.972;4.624;2023-02-28T09:51:00;102464.19;;;3.07;100.00
35151;BME280;55720;51.972;4.624;2023-02-28T09:53:30;102482.84;;;3.04;100.00
35151;BME280;55720;51.972;4.624;2023-02-28T09:56:03;102492.59;;;3.05;100.00
35151;BME280;55720;51.972;4.624;2023-02-28T10:03:59;102546.63;;;2.55;100.00
35151;BME280;55720;51.972;4.624;2023-02-28T10:06:28;102556.38;;;2.79;100.00
35151;BME280;55720;51.972;4.624;2023-02-28T10:09:04;102567.69;;;2.87;100.00
35151;BME280;55720;51.972;4.624;2023-02-28T10:11:35;102581.22;;;3.11;100.00
35151;BME280;55720;51.972;4.624;2023-02-28T10:14:15;102601.53;;;3.36;100.00
35151;BME280;55720;51.972;4.624;2023-02-28T10:16:50;102631.53;;;3.30;100.00
35151;BME280;55720;51.972;4.624;2023-02-28T10:19:27;102660.28;;;3.03;100.00
35151;BME280;55720;51.972;4.624;2023-02-28T10:22:04;102680.16;;;3.31;100.00
35151;BME280;55720;51.972;4.624;2023-02-28T10:24:52;102701.41;;;3.34;100.00
35151;BME280;55720;51.972;4.624;2023-02-28T10:27:21;102729.75;;;3.15;100.00
35151;BME280;55720;51.972;4.624;2023-02-28T10:29:49;102744.16;;;3.27;100.00
35151;BME280;55720;51.972;4.624;2023-02-28T10:32:21;102757.63;;;3.85;100.00
35151;BME280;55720;51.972;4.624;2023-02-28T10:34:55;102782.34;;;4.12;100.00
35151;BME280;55720;51.972;4.624;2023-02-28T10:37:22;102834.72;;;4.47;100.00
35151;BME280;55720;51.972;4.624;2023-02-28T10:39:47;102884.72;;;4.46;100.00
35151;BME280;55720;51.972;4.624;2023-02-28T10:42:27;102929.78;;;4.82;100.00
35151;BME280;55720;51.972;4.624;2023-02-28T10:45:26;102988.69;;;4.88;100.00
35151;BME280;55720;51.972;4.624;2023-02-28T10:47:56;103046.56;;;5.52;100.00
35151;BME280;55720;51.972;4.624;2023-02-28T10:56:16;103223.22;;;5.83;100.00
35151;BME280;55720;51.972;4.624;2023-02-28T11:01:45;103285.63;;;5.57;100.00
35151;BME280;55720;51.972;4.624;2023-02-28T11:07:02;103317.72;;;5.89;100.00
35151;BME280;55720;51.972;4.624;2023-02-28T11:09:38;103328.75;;;5.02;100.00
35151;BME280;55720;51.972;4.624;2023-02-28T11:12:06;103330.97;;;4.93;100.00
35151;BME280;55720;51.972;4.624;2023-02-28T11:14:37;103337.53;;;5.27;100.00
35151;BME280;55720;51.972;4.624;2023-02-28T11:17:29;103342.25;;;5.55;100.00
35151;BME280;55720;51.972;4.624;2023-02-28T11:20:05;103332.59;;;6.10;100.00
35151;BME280;55720;51.972;4.624;2023-02-28T11:22:52;103327.28;;;5.80;100.00
35151;BME280;55720;51.972;4.624;2023-02-28T11:25:26;103321.44;;;6.12;100.00
35151;BME280;55720;51.972;4.624;2023-02-28T11:27:56;103326.97;;;5.88;100.00
35151;BME280;55720;51.972;4.624;2023-02-28T11:30:28;103322.25;;;6.12;100.00
35151;BME280;55720;51.972;4.624;2023-02-28T11:32:54;103317.09;;;6.56;100.00
35151;BME280;55720;51.972;4.624;2023-02-28T11:35:27;103300.63;;;6.22;100.00
35151;BME280;55720;51.972;4.624;2023-02-28T11:37:55;103292.09;;;5.90;100.00
35151;BME280;55720;51.972;4.624;2023-02-28T11:45:44;103276.16;;;5.47;100.00
35151;BME280;55720;51.972;4.624;2023-02-28T11:48:29;103289.19;;;6.09;100.00
35151;BME280;55720;51.972;4.624;2023-02-28T11:51:10;103279.97;;;5.98;100.00
35151;BME280;55720;51.972;4.624;2023-02-28T11:53:47;103267.28;;;6.49;100.00
35151;BME280;55720;51.972;4.624;2023-02-28T11:56:37;103274.91;;;7.13;100.00
35151;BME280;55720;51.972;4.624;2023-02-28T11:59:29;103272.63;;;6.88;100.00
35151;BME280;55720;51.972;4.624;2023-02-28T12:02:23;103270.81;;;6.94;100.00
35151;BME280;55720;51.972;4.624;2023-02-28T12:05:17;103259.22;;;6.87;100.00
35151;BME280;55720;51.972;4.624;2023-02-28T12:08:11;103244.72;;;6.70;100.00
35151;BME280;55720;51.972;4.624;2023-02-28T12:10:56;103244.13;;;6.51;100.00
35151;BME280;55720;51.972;4.624;2023-02-28T12:13:53;103237.88;;;6.51;100.00
35151;BME280;55720;51.972;4.624;2023-02-28T12:16:31;103250.06;;;6.76;100.00
35151;BME280;55720;51.972;4.624;2023-02-28T12:23:04;103241.75;;;7.05;100.00
35151;BME280;55720;51.972;4.624;2023-02-28T12:25:48;103234.31;;;6.83;100.00
35151;BME280;55720;51.972;4.624;2023-02-28T12:28:19;103235.78;;;6.91;100.00
35151;BME280;55720;51.972;4.624;2023-02-28T12:31:14;103230.88;;;7.26;100.00
35151;BME280;55720;51.972;4.624;2023-02-28T12:33:48;103233.59;;;7.26;100.00
35151;BME280;55720;51.972;4.624;2023-02-28T12:36:18;103239.34;;;7.47;100.00
35151;BME280;55720;51.972;4.624;2023-02-28T12:39:00;103225.78;;;6.97;100.00
35151;BME280;55720;51.972;4.624;2023-02-28T12:41:33;103220.66;;;7.00;100.00
35151;BME280;55720;51.972;4.624;2023-02-28T12:44:05;103223.38;;;6.67;100.00
35151;BME280;55720;51.972;4.624;2023-02-28T12:46:37;103219.50;;;6.96;100.00
35151;BME280;55720;51.972;4.624;2023-02-28T12:51:57;103217.41;;;7.03;100.00
35151;BME280;55720;51.972;4.624;2023-02-28T12:54:33;103212.63;;;6.93;100.00
35151;BME280;55720;51.972;4.624;2023-02-28T12:59:54;103195.03;;;7.23;100.00
35151;BME280;55720;51.972;4.624;2023-02-28T13:05:19;103196.31;;;6.99;100.00
35151;BME280;55720;51.972;4.624;2023-02-28T13:10:53;103185.09;;;7.38;100.00
35151;BME280;55720;51.972;4.624;2023-02-28T13:13:30;103172.69;;;7.31;100.00
35151;BME280;55720;51.972;4.624;2023-02-28T13:16:09;103173.69;;;7.20;100.00
35151;BME280;55720;51.972;4.624;2023-02-28T13:21:09;103177.16;;;7.59;100.00
35151;BME280;55720;51.972;4.624;2023-02-28T13:26:22;103162.91;;;7.57;100.00
35151;BME280;55720;51.972;4.624;2023-02-28T13:47:42;103150.28;;;7.29;100.00
35151;BME280;55720;51.972;4.624;2023-02-28T13:50:32;103145.66;;;7.29;100.00
35151;BME280;55720;51.972;4.624;2023-02-28T14:05:06;103128.31;;;7.67;100.00
35151;BME280;55720;51.972;4.624;2023-02-28T14:07:52;103131.16;;;7.77;100.00
35151;BME280;55720;51.972;4.624;2023-02-28T14:10:28;103123.88;;;7.61;100.00
35151;BME280;55720;51.972;4.624;2023-02-28T14:13:00;103122.00;;;7.18;100.00
35151;BME280;55720;51.972;4.624;2023-02-28T14:18:24;103118.63;;;7.55;100.00
35151;BME280;55720;51.972;4.624;2023-02-28T14:20:56;103110.94;;;7.30;100.00
35151;BME280;55720;51.972;4.624;2023-02-28T14:23:40;103115.28;;;7.26;100.00
35151;BME280;55720;51.972;4.624;2023-02-28T14:26:13;103119.34;;;7.23;100.00
35151;BME280;55720;51.972;4.624;2023-02-28T14:34:43;103111.28;;;7.33;100.00
35151;BME280;55720;51.972;4.624;2023-02-28T14:37:15;103123.03;;;7.61;100.00
35151;BME280;55720;51.972;4.624;2023-02-28T14:39:43;103113.66;;;7.52;100.00
35151;BME280;55720;51.972;4.624;2023-02-28T14:42:31;103120.63;;;7.16;100.00
35151;BME280;55720;51.972;4.624;2023-02-28T14:44:57;103116.63;;;7.02;100.00
35151;BME280;55720;51.972;4.624;2023-02-28T14:47:27;103114.03;;;6.95;100.00
35151;BME280;55720;51.972;4.624;2023-02-28T14:49:53;103113.88;;;7.23;100.00
35151;BME280;55720;51.972;4.624;2023-02-28T14:54:52;103113.88;;;7.02;100.00
35151;BME280;55720;51.972;4.624;2023-02-28T14:57:32;103113.03;;;6.79;100.00
35151;BME280;55720;51.972;4.624;2023-02-28T15:00:20;103106.88;;;6.51;100.00
35151;BME280;55720;51.972;4.624;2023-02-28T15:03:19;103120.19;;;6.47;100.00